Time;durP1;ratioP1;P1;durP2;ratioP2;P2;SDS_P1;SDS_P2;PMS_P1;PMS_P2;Temp;Humidity;BMP_temperature;BMP_pressure;BME280_temperature;BME280_humidity;BME280_pressure;Samples;Min_cycle;Max_cycle;Signal;HPM_P1;HPM_P2
2022/10/26 00:00:04;;;;;;;;;;;;;;;;;;351249;28;1004;-64
2022/10/26 00:00:15;;;;;;;;;;;;;;;;;;351347;28;919;-64
2022/10/26 00:00:26;;;;;;;;;;;;;;;;;;351296;28;853;-64
2022/10/26 00:00:36;;;;;;;;;;;;;;;;;;351346;28;908;-64
2022/10/26 00:00:47;;;;;;;;;;;;;;;;;;351339;28;853;-64
2022/10/26 00:01:04;;;;;;;;;;;;;;;;;;351385;28;900;-64
2022/10/26 00:01:15;;;;;;;;;;;;;;;;;;351275;28;993;-64
2022/10/26 00:01:25;;;;;;;;;;;;;;;;;;351081;28;1411;-64
2022/10/26 00:01:35;;;;;;;;;;;;;;;;;;352574;28;1001;-64
2022/10/26 00:01:46;;;;;;;;;;;;;;;;;;352744;28;979;-64
2022/10/26 00:01:57;;;;;;;;;;;;;;;;;;352673;28;1004;-64
2022/10/26 00:02:07;;;;;;;;;;;;;;;;;;352743;28;777;-64
2022/10/26 00:02:17;;;;;;;;;;;;;;;;;;352715;28;936;-64
2022/10/26 00:02:27;;;;;;;;;;;;;;;;;;352713;28;948;-64
2022/10/26 00:02:38;;;;;;;;;;;;;;;;;;352244;28;1339;-64
2022/10/26 00:02:48;;;;;;;;;;;;;;;;;;351328;28;912;-64
2022/10/26 00:02:58;;;;;;;;;;;;;;;;;;351341;28;1011;-64
2022/10/26 00:03:08;;;;;;;;;;;;;;;;;;351180;28;1003;-63
2022/10/26 00:03:18;;;;;;;;;;;;;;;;;;351263;28;959;-64
2022/10/26 00:03:28;;;;;;;;;;;;;;;;;;351256;28;961;-64
2022/10/26 00:03:40;;;;;;;;;;;;;;;;;;351258;28;746;-64
2022/10/26 00:03:50;;;;;;;;;;;;;;;;;;351292;28;996;-64
2022/10/26 00:04:00;;;;;;;;;;;;;;;;;;351354;28;841;-64
2022/10/26 00:04:10;;;;;;;;;;;;;;;;;;351317;28;917;-63
2022/10/26 00:04:20;;;;;;;;;;;;;;;;;;351227;28;940;-64
2022/10/26 00:04:30;;;;;;;;;;;;;;;;;;351376;28;984;-64
2022/10/26 00:04:41;;;;;;;;;;;;;;;;;;351293;28;1106;-64
2022/10/26 00:04:51;;;;;;;;;;;;;;;;;;351301;28;936;-64
2022/10/26 00:05:01;;;;;;;;;;;;;;;;;;351318;28;924;-64
2022/10/26 00:05:11;;;;;;;;;;;;;;;;;;351299;28;917;-64
2022/10/26 00:05:22;;;;;;;;;;;;;;;;;;351269;28;977;-64
2022/10/26 00:05:33;;;;;;;;;;;;;;;;;;351308;28;915;-64
2022/10/26 00:05:43;;;;;;;;;;;;;;;;;;351304;28;774;-64
2022/10/26 00:05:53;;;;;;;;;;;;;;;;;;351249;28;804;-64
2022/10/26 00:06:08;;;;;;;;;;;;;;;;;;351310;28;956;-64
2022/10/26 00:06:19;;;;;;;;;;;;;;;;;;351339;28;940;-64
2022/10/26 00:06:29;;;;;;;;;;;;;;;;;;351239;28;980;-64
2022/10/26 00:06:39;;;;;;;;;;;;;;;;;;351315;28;960;-64
2022/10/26 00:06:50;;;;;;;;;;;;;;;;;;351275;28;821;-64
2022/10/26 00:07:00;;;;;;;;;;;;;;;;;;351316;28;917;-64
2022/10/26 00:07:10;;;;;;;;;;;;;;;;;;351328;28;905;-64
2022/10/26 00:07:20;;;;;;;;;;;;;;;;;;351373;28;929;-64
2022/10/26 00:07:31;;;;;;;;;;;;;;;;;;351267;28;766;-64
2022/10/26 00:07:41;;;;;;;;;;;;;;;;;;351247;28;996;-64
2022/10/26 00:07:51;;;;;;;;;;;;;;;;;;351346;28;944;-64
2022/10/26 00:08:01;;;;;;;;;;;;;;;;;;351305;28;1003;-64
2022/10/26 00:08:12;;;;;;;;;;;;;;;;;;351377;28;818;-64
2022/10/26 00:08:22;;;;;;;;;;;;;;;;;;351375;28;858;-64
2022/10/26 00:08:32;;;;;;;;;;;;;;;;;;351174;28;1906;-64
2022/10/26 00:08:43;;;;;;;;;;;;;;;;;;351343;28;925;-64
2022/10/26 00:08:54;;;;;;;;;;;;;;;;;;351299;28;1031;-64
2022/10/26 00:09:04;;;;;;;;;;;;;;;;;;351299;28;855;-63
2022/10/26 00:09:14;;;;;;;;;;;;;;;;;;351323;28;932;-64
2022/10/26 00:09:25;;;;;;;;;;;;;;;;;;351338;28;909;-64
2022/10/26 00:09:35;;;;;;;;;;;;;;;;;;351288;28;956;-64
2022/10/26 00:09:45;;;;;;;;;;;;;;;;;;351263;28;980;-64
2022/10/26 00:09:55;;;;;;;;;;;;;;;;;;351284;28;861;-64
2022/10/26 00:10:06;;;;;;;;;;;;;;;;;;351301;28;960;-64
2022/10/26 00:10:16;;;;;;;;;;;;;;;;;;350511;28;1395;-64
2022/10/26 00:10:26;;;;;;;;;;;;;;;;;;350488;28;1601;-64
2022/10/26 00:10:37;;;;;;;;;;;;;;;;;;351268;28;996;-64
2022/10/26 00:10:47;;;;;;;;;;;;;;;;;;351317;28;924;-64
2022/10/26 00:10:57;;;;;;;;;;;;;;;;;;351193;28;979;-64
2022/10/26 00:11:08;;;;;;;;;;;;;;;;;;351124;28;1023;-64
2022/10/26 00:11:18;;;;;;;;;;;;;;;;;;351338;28;932;-64
2022/10/26 00:11:28;;;;;;;;;;;;;;;;;;351312;28;947;-64
2022/10/26 00:11:39;;;;;;;;;;;;;;;;;;351307;28;920;-64
2022/10/26 00:11:49;;;;;;;;;;;;;;;;;;351258;28;1050;-64
2022/10/26 00:11:59;;;;;;;;;;;;;;;;;;351323;28;917;-64
2022/10/26 00:12:09;;;;;;;;;;;;;;;;;;351279;28;937;-64
2022/10/26 00:12:20;;;;;;;;;;;;;;;;;;351348;28;971;-64
2022/10/26 00:12:30;;;;;;;;;;;;;;;;;;351313;28;1015;-64
2022/10/26 00:12:40;;;;;;;;;;;;;;;;;;351297;28;1012;-64
2022/10/26 00:12:50;;;;;;;;;;;;;;;;;;351351;28;1075;-64
2022/10/26 00:13:01;;;;;;;;;;;;;;;;;;351337;28;909;-64
2022/10/26 00:13:11;;;;;;;;;;;;;;;;;;351305;28;801;-64
2022/10/26 00:13:21;;;;;;;;;;;;;;;;;;351336;28;948;-64
2022/10/26 00:13:32;;;;;;;;;;;;;;;;;;351269;28;1008;-64
2022/10/26 00:13:42;;;;;;;;;;;;;;;;;;351318;28;956;-64
2022/10/26 00:13:53;;;;;;;;;;;;;;;;;;351243;28;1003;-64
2022/10/26 00:14:03;;;;;;;;;;;;;;;;;;351328;28;901;-64
2022/10/26 00:14:13;;;;;;;;;;;;;;;;;;351392;28;818;-64
2022/10/26 00:14:23;;;;;;;;;;;;;;;;;;351339;28;893;-64
2022/10/26 00:14:34;;;;;;;;;;;;;;;;;;351343;28;917;-64
2022/10/26 00:14:44;;;;;;;;;;;;;;;;;;351290;28;1016;-64
2022/10/26 00:14:54;;;;;;;;;;;;;;;;;;351318;28;912;-64
2022/10/26 00:15:05;;;;;;;;;;;;;;;;;;351341;28;936;-64
2022/10/26 00:15:16;;;;;;;;;;;;;;;;;;351328;28;837;-64
2022/10/26 00:15:26;;;;;;;;;;;;;;;;;;351284;28;1074;-64
2022/10/26 00:15:40;;;;;;;;;;;;;;;;;;351311;28;952;-64
2022/10/26 00:15:50;;;;;;;;;;;;;;;;;;351301;28;995;-64
2022/10/26 00:16:06;;;;;;;;;;;;;;;;;;351260;28;1008;-64
2022/10/26 00:16:21;;;;;;;;;;;;;;;;;;351350;28;956;-64
2022/10/26 00:16:31;;;;;;;;;;;;;;;;;;351365;28;781;-64
2022/10/26 00:16:41;;;;;;;;;;;;;;;;;;351237;28;961;-64
2022/10/26 00:16:51;;;;;;;;;;;;;;;;;;351279;28;793;-64
2022/10/26 00:17:01;;;;;;;;;;;;;;;;;;351327;28;972;-64
2022/10/26 00:17:11;;;;;;;;;;;;;;;;;;351339;28;999;-64
2022/10/26 00:17:22;;;;;;;;;;;;;;;;;;351330;28;881;-64
2022/10/26 00:17:32;;;;;;;;;;;;;;;;;;351327;28;1051;-64
2022/10/26 00:17:42;;;;;;;;;;;;;;;;;;351303;28;889;-64
2022/10/26 00:17:52;;;;;;;;;;;;;;;;;;351322;28;952;-64
2022/10/26 00:18:03;;;;;;;;;;;;;;;;;;351246;28;988;-64
2022/10/26 00:18:13;;;;;;;;;;;;;;;;;;351344;28;920;-64
2022/10/26 00:18:23;;;;;;;;;;;;;;;;;;351277;28;912;-64
2022/10/26 00:18:33;;;;;;;;;;;;;;;;;;351378;28;834;-64
2022/10/26 00:18:44;;;;;;;;;;;;;;;;;;351345;28;836;-64
2022/10/26 00:18:54;;;;;;;;;;;;;;;;;;351360;28;802;-64
2022/10/26 00:19:04;;;;;;;;;;;;;;;;;;350613;28;1437;-64
2022/10/26 00:19:14;;;;;;;;;;;;;;;;;;350402;28;1586;-64
2022/10/26 00:19:24;;;;;;;;;;;;;;;;;;351282;28;920;-64
2022/10/26 00:19:36;;;;;;;;;;;;;;;;;;351338;28;1207;-64
2022/10/26 00:19:47;;;;;;;;;;;;;;;;;;351227;28;1011;-64
2022/10/26 00:19:59;;;;;;;;;;;;;;;;;;351345;28;893;-64
2022/10/26 00:20:09;;;;;;;;;;;;;;;;;;351272;28;995;-64
2022/10/26 00:20:19;;;;;;;;;;;;;;;;;;351300;28;841;-64
2022/10/26 00:20:31;;;;;;;;;;;;;;;;;;351260;28;964;-64
2022/10/26 00:20:41;;;;;;;;;;;;;;;;;;351319;28;853;-64
2022/10/26 00:20:51;;;;;;;;;;;;;;;;;;351339;28;925;-64
2022/10/26 00:21:03;;;;;;;;;;;;;;;;;;351326;28;964;-64
2022/10/26 00:21:13;;;;;;;;;;;;;;;;;;351337;28;871;-64
2022/10/26 00:21:23;;;;;;;;;;;;;;;;;;351289;28;1024;-64
2022/10/26 00:21:34;;;;;;;;;;;;;;;;;;351327;28;826;-64
2022/10/26 00:21:44;;;;;;;;;;;;;;;;;;351306;28;1075;-63
2022/10/26 00:21:54;;;;;;;;;;;;;;;;;;351289;28;794;-64
2022/10/26 00:22:04;;;;;;;;;;;;;;;;;;351134;28;1043;-64
2022/10/26 00:22:14;;;;;;;;;;;;;;;;;;351339;28;920;-64
2022/10/26 00:22:28;;;;;;;;;;;;;;;;;;351285;28;908;-64
2022/10/26 00:22:38;;;;;;;;;;;;;;;;;;351315;28;909;-64
2022/10/26 00:22:48;;;;;;;;;;;;;;;;;;351283;28;896;-64
2022/10/26 00:22:58;;;;;;;;;;;;;;;;;;351358;28;1031;-64
2022/10/26 00:23:09;;;;;;;;;;;;;;;;;;351335;28;908;-64
2022/10/26 00:23:19;;;;;;;;;;;;;;;;;;351269;28;805;-64
2022/10/26 00:23:30;;;;;;;;;;;;;;;;;;351325;28;909;-64
2022/10/26 00:23:40;;;;;;;;;;;;;;;;;;351379;28;967;-64
2022/10/26 00:23:50;;;;;;;;;;;;;;;;;;351302;28;802;-64
2022/10/26 00:24:01;;;;;;;;;;;;;;;;;;351311;28;885;-64
2022/10/26 00:24:11;;;;;;;;;;;;;;;;;;351330;28;964;-64
2022/10/26 00:24:21;;;;;;;;;;;;;;;;;;351122;28;1280;-64
2022/10/26 00:24:31;;;;;;;;;;;;;;;;;;351257;28;1004;-64
2022/10/26 00:24:42;;;;;;;;;;;;;;;;;;351379;28;829;-64
2022/10/26 00:24:52;;;;;;;;;;;;;;;;;;351320;28;976;-63
2022/10/26 00:25:02;;;;;;;;;;;;;;;;;;351108;28;1167;-64
2022/10/26 00:25:12;;;;;;;;;;;;;;;;;;351328;28;1027;-64
2022/10/26 00:25:23;;;;;;;;;;;;;;;;;;351375;28;790;-64
2022/10/26 00:25:33;;;;;;;;;;;;;;;;;;351288;28;802;-64
2022/10/26 00:25:43;;;;;;;;;;;;;;;;;;351316;28;941;-63
2022/10/26 00:25:54;;;;;;;;;;;;;;;;;;351228;28;978;-64
2022/10/26 00:26:04;;;;;;;;;;;;;;;;;;351323;28;857;-64
2022/10/26 00:26:16;;;;;;;;;;;;;;;;;;351335;28;865;-64
2022/10/26 00:26:27;;;;;;;;;;;;;;;;;;351327;28;932;-64
2022/10/26 00:26:37;;;;;;;;;;;;;;;;;;351261;28;818;-64
2022/10/26 00:26:48;;;;;;;;;;;;;;;;;;351278;28;1000;-64
2022/10/26 00:26:58;;;;;;;;;;;;;;;;;;351343;28;857;-64
2022/10/26 00:27:08;;;;;;;;;;;;;;;;;;351269;28;972;-64
2022/10/26 00:27:18;;;;;;;;;;;;;;;;;;351297;28;944;-63
2022/10/26 00:27:28;;;;;;;;;;;;;;;;;;351322;28;798;-64
2022/10/26 00:27:38;;;;;;;;;;;;;;;;;;351261;28;967;-64
2022/10/26 00:27:49;;;;;;;;;;;;;;;;;;351268;28;1075;-64
2022/10/26 00:27:59;;;;;;;;;;;;;;;;;;351385;28;817;-64
2022/10/26 00:28:09;;;;;;;;;;;;;;;;;;351240;28;979;-64
2022/10/26 00:28:19;;;;;;;;;;;;;;;;;;351317;28;901;-64
2022/10/26 00:28:30;;;;;;;;;;;;;;;;;;351212;28;1980;-64
2022/10/26 00:28:40;;;;;;;;;;;;;;;;;;351242;28;1040;-64
2022/10/26 00:28:51;;;;;;;;;;;;;;;;;;351312;28;988;-64
2022/10/26 00:29:02;;;;;;;;;;;;;;;;;;351263;28;999;-64
2022/10/26 00:29:12;;;;;;;;;;;;;;;;;;351319;28;937;-64
2022/10/26 00:29:22;;;;;;;;;;;;;;;;;;351349;28;924;-64
2022/10/26 00:29:32;;;;;;;;;;;;;;;;;;351333;28;921;-64
2022/10/26 00:29:42;;;;;;;;;;;;;;;;;;351238;28;1220;-64
2022/10/26 00:29:53;;;;;;;;;;;;;;;;;;351210;28;928;-64
2022/10/26 00:30:04;;;;;;;;;;;;;;;;;;351262;28;883;-63
2022/10/26 00:30:14;;;;;;;;;;;;;;;;;;351224;28;1172;-64
2022/10/26 00:30:24;;;;;;;;;;;;;;;;;;351334;28;947;-64
2022/10/26 00:30:37;;;;;;;;;;;;;;;;;;351243;28;917;-64
2022/10/26 00:30:47;;;;;;;;;;;;;;;;;;351286;28;845;-64
2022/10/26 00:31:16;;;;;;;;;;;;;;;;;;351258;28;972;-64
2022/10/26 00:31:26;;;;;;;;;;;;;;;;;;351013;28;1913;-64
2022/10/26 00:31:37;;;;;;;;;;;;;;;;;;352939;28;988;-64
2022/10/26 00:31:47;;;;;;;;;;;;;;;;;;353008;28;853;-64
2022/10/26 00:31:57;;;;;;;;;;;;;;;;;;352983;28;924;-64
2022/10/26 00:32:07;;;;;;;;;;;;;;;;;;352971;28;805;-64
2022/10/26 00:32:17;;;;;;;;;;;;;;;;;;353033;28;1002;-64
2022/10/26 00:32:28;;;;;;;;;;;;;;;;;;352943;28;781;-64
2022/10/26 00:32:38;;;;;;;;;;;;;;;;;;352939;28;1209;-64
2022/10/26 00:32:48;;;;;;;;;;;;;;;;;;353007;28;888;-64
2022/10/26 00:32:58;;;;;;;;;;;;;;;;;;352832;28;1345;-65
2022/10/26 00:33:11;;;;;;;;;;;;;;;;;;352988;28;960;-64
2022/10/26 00:33:21;;;;;;;;;;;;;;;;;;351803;28;1988;-64
2022/10/26 00:33:32;;;;;;;;;;;;;;;;;;353028;28;979;-64
2022/10/26 00:33:42;;;;;;;;;;;;;;;;;;353011;28;1007;-64
2022/10/26 00:33:53;;;;;;;;;;;;;;;;;;351695;28;1371;-64
2022/10/26 00:34:03;;;;;;;;;;;;;;;;;;351555;28;1134;-64
2022/10/26 00:34:14;;;;;;;;;;;;;;;;;;351569;28;921;-64
2022/10/26 00:34:24;;;;;;;;;;;;;;;;;;351642;28;825;-64
2022/10/26 00:34:34;;;;;;;;;;;;;;;;;;351609;28;912;-64
2022/10/26 00:34:45;;;;;;;;;;;;;;;;;;351521;28;964;-64
2022/10/26 00:34:55;;;;;;;;;;;;;;;;;;351608;28;944;-64
2022/10/26 00:35:05;;;;;;;;;;;;;;;;;;351583;28;1035;-64
2022/10/26 00:35:15;;;;;;;;;;;;;;;;;;351071;28;2036;-64
2022/10/26 00:35:25;;;;;;;;;;;;;;;;;;353006;28;1105;-64
2022/10/26 00:35:36;;;;;;;;;;;;;;;;;;353009;28;975;-64
2022/10/26 00:35:46;;;;;;;;;;;;;;;;;;352988;28;909;-64
2022/10/26 00:35:57;;;;;;;;;;;;;;;;;;353036;28;976;-64
2022/10/26 00:36:08;;;;;;;;;;;;;;;;;;352994;28;1019;-64
2022/10/26 00:36:19;;;;;;;;;;;;;;;;;;352915;28;1027;-64
2022/10/26 00:36:30;;;;;;;;;;;;;;;;;;353017;28;971;-64
2022/10/26 00:36:40;;;;;;;;;;;;;;;;;;353006;28;927;-64
2022/10/26 00:36:50;;;;;;;;;;;;;;;;;;352952;28;845;-64
2022/10/26 00:37:00;;;;;;;;;;;;;;;;;;352954;28;754;-64
2022/10/26 00:37:11;;;;;;;;;;;;;;;;;;353012;28;845;-64
2022/10/26 00:37:21;;;;;;;;;;;;;;;;;;352959;28;1023;-64
2022/10/26 00:37:31;;;;;;;;;;;;;;;;;;353035;28;904;-64
2022/10/26 00:37:42;;;;;;;;;;;;;;;;;;353032;28;813;-64
2022/10/26 00:37:55;;;;;;;;;;;;;;;;;;352989;28;845;-64
2022/10/26 00:38:05;;;;;;;;;;;;;;;;;;353007;28;968;-64
2022/10/26 00:38:15;;;;;;;;;;;;;;;;;;353053;28;841;-64
2022/10/26 00:38:26;;;;;;;;;;;;;;;;;;352952;28;917;-64
2022/10/26 00:38:37;;;;;;;;;;;;;;;;;;353005;28;967;-64
2022/10/26 00:38:50;;;;;;;;;;;;;;;;;;353051;28;802;-64
2022/10/26 00:39:01;;;;;;;;;;;;;;;;;;352924;28;909;-64
2022/10/26 00:39:12;;;;;;;;;;;;;;;;;;353000;28;948;-64
2022/10/26 00:39:22;;;;;;;;;;;;;;;;;;352949;28;901;-64
2022/10/26 00:39:32;;;;;;;;;;;;;;;;;;353011;28;1045;-64
2022/10/26 00:39:42;;;;;;;;;;;;;;;;;;353107;28;904;-64
2022/10/26 00:39:52;;;;;;;;;;;;;;;;;;352933;28;983;-64
2022/10/26 00:40:03;;;;;;;;;;;;;;;;;;352961;28;956;-63
2022/10/26 00:40:13;;;;;;;;;;;;;;;;;;353027;28;892;-64
2022/10/26 00:40:26;;;;;;;;;;;;;;;;;;352983;28;900;-64
2022/10/26 00:40:36;;;;;;;;;;;;;;;;;;353030;28;988;-64
2022/10/26 00:40:47;;;;;;;;;;;;;;;;;;352964;28;893;-64
2022/10/26 00:40:57;;;;;;;;;;;;;;;;;;353015;28;797;-64
2022/10/26 00:41:10;;;;;;;;;;;;;;;;;;352960;28;968;-64
2022/10/26 00:41:23;;;;;;;;;;;;;;;;;;352975;28;845;-64
2022/10/26 00:41:33;;;;;;;;;;;;;;;;;;353003;28;1023;-64
2022/10/26 00:41:43;;;;;;;;;;;;;;;;;;352998;28;1841;-64
2022/10/26 00:41:53;;;;;;;;;;;;;;;;;;353061;28;794;-64
2022/10/26 00:42:04;;;;;;;;;;;;;;;;;;352998;28;920;-64
2022/10/26 00:42:17;;;;;;;;;;;;;;;;;;352953;28;968;-64
2022/10/26 00:42:27;;;;;;;;;;;;;;;;;;353024;28;980;-64
2022/10/26 00:42:38;;;;;;;;;;;;;;;;;;352956;28;983;-64
2022/10/26 00:42:48;;;;;;;;;;;;;;;;;;353072;28;793;-64
2022/10/26 00:43:00;;;;;;;;;;;;;;;;;;352983;28;980;-64
2022/10/26 00:43:14;;;;;;;;;;;;;;;;;;352902;28;1007;-64
2022/10/26 00:43:24;;;;;;;;;;;;;;;;;;352988;28;916;-64
2022/10/26 00:43:38;;;;;;;;;;;;;;;;;;353034;28;928;-64
2022/10/26 00:43:48;;;;;;;;;;;;;;;;;;352937;28;936;-64
2022/10/26 00:43:59;;;;;;;;;;;;;;;;;;352940;28;975;-64
2022/10/26 00:44:28;;;;;;;;;;;;;;;;;;352996;28;931;-64
2022/10/26 00:44:47;;;;;;;;;;;;;;;;;;353005;28;896;-64
2022/10/26 00:45:00;;;;;;;;;;;;;;;;;;352934;28;975;-64
2022/10/26 00:45:21;;;;;;;;;;;;;;;;;;352890;28;935;-64
2022/10/26 00:45:31;;;;;;;;;;;;;;;;;;353038;28;845;-64
2022/10/26 00:45:42;;;;;;;;;;;;;;;;;;352296;28;1650;-64
2022/10/26 00:45:54;;;;;;;;;;;;;;;;;;350516;28;1582;-64
2022/10/26 00:46:06;;;;;;;;;;;;;;;;;;351565;28;943;-64
2022/10/26 00:46:34;;;;;;;;;;;;;;;;;;351610;28;932;-64
2022/10/26 00:46:45;;;;;;;;;;;;;;;;;;351550;28;928;-64
2022/10/26 00:46:55;;;;;;;;;;;;;;;;;;351572;28;1011;-64
2022/10/26 00:47:05;;;;;;;;;;;;;;;;;;351625;28;924;-64
2022/10/26 00:47:26;;;;;;;;;;;;;;;;;;351533;28;955;-64
2022/10/26 00:47:38;;;;;;;;;;;;;;;;;;351542;28;976;-64
2022/10/26 00:48:04;;;;;;;;;;;;;;;;;;350729;28;1399;-64
2022/10/26 00:48:37;;;;;;;;;;;;;;;;;;351592;28;798;-64
2022/10/26 00:48:52;;;;;;;;;;;;;;;;;;347265;28;1064;-64
2022/10/26 00:49:13;;;;;;;;;;;;;;;;;;349531;28;1227;-64
2022/10/26 00:49:24;;;;;;;;;;;;;;;;;;350363;28;912;-64
2022/10/26 00:49:34;;;;;;;;;;;;;;;;;;350195;28;941;-64
2022/10/26 00:49:46;;;;;;;;;;;;;;;;;;350148;28;1009;-64
2022/10/26 00:50:00;;;;;;;;;;;;;;;;;;350183;28;975;-64
2022/10/26 00:50:19;;;;;;;;;;;;;;;;;;350171;28;945;-64
2022/10/26 00:50:32;;;;;;;;;;;;;;;;;;350148;28;934;-64
2022/10/26 00:50:43;;;;;;;;;;;;;;;;;;350153;28;1007;-64
2022/10/26 00:50:55;;;;;;;;;;;;;;;;;;350184;28;908;-63
2022/10/26 00:51:07;;;;;;;;;;;;;;;;;;350147;28;929;-64
2022/10/26 00:51:21;;;;;;;;;;;;;;;;;;350120;28;1016;-64
2022/10/26 00:51:43;;;;;;;;;;;;;;;;;;350180;28;763;-64
2022/10/26 00:51:53;;;;;;;;;;;;;;;;;;350207;28;936;-64
2022/10/26 00:52:05;;;;;;;;;;;;;;;;;;350171;28;948;-64
2022/10/26 00:52:16;;;;;;;;;;;;;;;;;;350162;28;944;-64
2022/10/26 00:52:27;;;;;;;;;;;;;;;;;;350159;28;920;-64
2022/10/26 00:52:38;;;;;;;;;;;;;;;;;;350167;28;988;-64
2022/10/26 00:52:50;;;;;;;;;;;;;;;;;;350187;28;1028;-64
2022/10/26 00:53:02;;;;;;;;;;;;;;;;;;350149;28;921;-64
2022/10/26 00:53:12;;;;;;;;;;;;;;;;;;349872;28;1383;-64
2022/10/26 00:53:22;;;;;;;;;;;;;;;;;;350336;28;1779;-64
2022/10/26 00:53:32;;;;;;;;;;;;;;;;;;350138;28;932;-64
2022/10/26 00:53:43;;;;;;;;;;;;;;;;;;350122;28;1044;-64
2022/10/26 00:53:54;;;;;;;;;;;;;;;;;;350151;28;964;-64
2022/10/26 00:54:09;;;;;;;;;;;;;;;;;;350170;28;920;-63
2022/10/26 00:54:19;;;;;;;;;;;;;;;;;;350171;28;896;-64
2022/10/26 00:54:29;;;;;;;;;;;;;;;;;;350240;28;802;-63
2022/10/26 00:54:40;;;;;;;;;;;;;;;;;;350212;28;822;-64
2022/10/26 00:54:51;;;;;;;;;;;;;;;;;;350135;28;1078;-64
2022/10/26 00:55:01;;;;;;;;;;;;;;;;;;350130;28;905;-64
2022/10/26 00:55:11;;;;;;;;;;;;;;;;;;350208;28;793;-64
2022/10/26 00:55:25;;;;;;;;;;;;;;;;;;350173;28;913;-64
2022/10/26 00:55:41;;;;;;;;;;;;;;;;;;350128;28;995;-64
2022/10/26 00:55:52;;;;;;;;;;;;;;;;;;350141;28;889;-64
2022/10/26 00:56:03;;;;;;;;;;;;;;;;;;350193;28;857;-63
2022/10/26 00:56:13;;;;;;;;;;;;;;;;;;350182;28;920;-64
2022/10/26 00:56:23;;;;;;;;;;;;;;;;;;350158;28;1011;-64
2022/10/26 00:56:34;;;;;;;;;;;;;;;;;;350150;28;1074;-64
2022/10/26 00:56:46;;;;;;;;;;;;;;;;;;350198;28;872;-64
2022/10/26 00:56:56;;;;;;;;;;;;;;;;;;350205;28;833;-64
2022/10/26 00:57:07;;;;;;;;;;;;;;;;;;350144;28;920;-64
2022/10/26 00:57:17;;;;;;;;;;;;;;;;;;350121;28;1122;-64
2022/10/26 00:57:27;;;;;;;;;;;;;;;;;;350096;28;1123;-64
2022/10/26 00:57:38;;;;;;;;;;;;;;;;;;350139;28;908;-64
2022/10/26 00:57:50;;;;;;;;;;;;;;;;;;350183;28;999;-64
2022/10/26 00:58:02;;;;;;;;;;;;;;;;;;350147;28;988;-64
2022/10/26 00:58:12;;;;;;;;;;;;;;;;;;350210;28;850;-64
2022/10/26 00:58:23;;;;;;;;;;;;;;;;;;350204;28;853;-64
2022/10/26 00:58:35;;;;;;;;;;;;;;;;;;350175;28;945;-64
2022/10/26 00:58:45;;;;;;;;;;;;;;;;;;350110;28;928;-64
2022/10/26 00:58:59;;;;;;;;;;;;;;;;;;350217;28;913;-64
2022/10/26 00:59:10;;;;;;;;;;;;;;;;;;350218;28;936;-64
2022/10/26 00:59:20;;;;;;;;;;;;;;;;;;350188;28;916;-63
2022/10/26 00:59:31;;;;;;;;;;;;;;;;;;350062;28;1116;-64
2022/10/26 00:59:42;;;;;;;;;;;;;;;;;;350135;28;987;-64
2022/10/26 00:59:54;;;;;;;;;;;;;;;;;;350149;28;1692;-64
2022/10/26 01:00:05;;;;;;;;;;;;;;;;;;350199;28;924;-64
2022/10/26 01:00:16;;;;;;;;;;;;;;;;;;350113;28;999;-64
2022/10/26 01:00:26;;;;;;;;;;;;;;;;;;350159;28;972;-64
2022/10/26 01:00:37;;;;;;;;;;;;;;;;;;350133;28;912;-64
2022/10/26 01:00:47;;;;;;;;;;;;;;;;;;350262;28;905;-64
2022/10/26 01:00:58;;;;;;;;;;;;;;;;;;350133;28;1112;-64
2022/10/26 01:01:08;;;;;;;;;;;;;;;;;;350197;28;786;-64
2022/10/26 01:01:18;;;;;;;;;;;;;;;;;;350181;28;921;-64
2022/10/26 01:01:30;;;;;;;;;;;;;;;;;;350876;28;1539;-64
2022/10/26 01:01:42;;;;;;;;;;;;;;;;;;351568;28;893;-64
2022/10/26 01:01:53;;;;;;;;;;;;;;;;;;350471;28;1690;-64
2022/10/26 01:02:03;;;;;;;;;;;;;;;;;;351602;28;932;-64
2022/10/26 01:02:13;;;;;;;;;;;;;;;;;;351572;28;916;-64
2022/10/26 01:02:23;;;;;;;;;;;;;;;;;;351574;28;778;-64
2022/10/26 01:02:34;;;;;;;;;;;;;;;;;;351564;28;932;-63
2022/10/26 01:02:45;;;;;;;;;;;;;;;;;;351517;28;1289;-64
2022/10/26 01:02:56;;;;;;;;;;;;;;;;;;351556;28;987;-64
2022/10/26 01:03:08;;;;;;;;;;;;;;;;;;351547;28;952;-64
2022/10/26 01:03:19;;;;;;;;;;;;;;;;;;351575;28;932;-64
2022/10/26 01:03:30;;;;;;;;;;;;;;;;;;351613;28;1003;-64
2022/10/26 01:03:41;;;;;;;;;;;;;;;;;;351552;28;817;-64
2022/10/26 01:03:52;;;;;;;;;;;;;;;;;;351551;28;987;-64
2022/10/26 01:04:02;;;;;;;;;;;;;;;;;;351510;28;920;-64
2022/10/26 01:04:13;;;;;;;;;;;;;;;;;;351599;28;932;-64
2022/10/26 01:04:23;;;;;;;;;;;;;;;;;;351625;28;912;-64
2022/10/26 01:04:33;;;;;;;;;;;;;;;;;;351523;28;916;-64
2022/10/26 01:04:44;;;;;;;;;;;;;;;;;;351645;28;840;-64
2022/10/26 01:04:55;;;;;;;;;;;;;;;;;;351607;28;877;-64
2022/10/26 01:05:06;;;;;;;;;;;;;;;;;;351572;28;921;-64
2022/10/26 01:05:17;;;;;;;;;;;;;;;;;;351556;28;817;-63
2022/10/26 01:05:28;;;;;;;;;;;;;;;;;;351600;28;904;-64
2022/10/26 01:05:42;;;;;;;;;;;;;;;;;;351601;28;983;-64
2022/10/26 01:05:55;;;;;;;;;;;;;;;;;;351644;28;896;-64
2022/10/26 01:06:07;;;;;;;;;;;;;;;;;;351548;28;974;-64
2022/10/26 01:06:17;;;;;;;;;;;;;;;;;;351586;28;837;-64
2022/10/26 01:06:29;;;;;;;;;;;;;;;;;;351577;28;1043;-64
2022/10/26 01:06:40;;;;;;;;;;;;;;;;;;351561;28;816;-64
2022/10/26 01:06:50;;;;;;;;;;;;;;;;;;351592;28;970;-64
2022/10/26 01:07:02;;;;;;;;;;;;;;;;;;351597;28;901;-64
2022/10/26 01:07:13;;;;;;;;;;;;;;;;;;351590;28;924;-64
2022/10/26 01:07:24;;;;;;;;;;;;;;;;;;351589;28;840;-64
2022/10/26 01:07:35;;;;;;;;;;;;;;;;;;351531;28;928;-64
2022/10/26 01:07:46;;;;;;;;;;;;;;;;;;351568;28;888;-64
2022/10/26 01:07:56;;;;;;;;;;;;;;;;;;351577;28;1208;-64
2022/10/26 01:08:07;;;;;;;;;;;;;;;;;;351520;28;916;-64
2022/10/26 01:08:18;;;;;;;;;;;;;;;;;;351540;28;841;-64
2022/10/26 01:08:28;;;;;;;;;;;;;;;;;;351543;28;1918;-64
2022/10/26 01:08:39;;;;;;;;;;;;;;;;;;351561;28;912;-64
2022/10/26 01:08:49;;;;;;;;;;;;;;;;;;351619;28;900;-64
2022/10/26 01:08:59;;;;;;;;;;;;;;;;;;351590;28;958;-64
2022/10/26 01:09:11;;;;;;;;;;;;;;;;;;351572;28;987;-64
2022/10/26 01:09:21;;;;;;;;;;;;;;;;;;351584;28;1007;-64
2022/10/26 01:09:31;;;;;;;;;;;;;;;;;;351573;28;848;-64
2022/10/26 01:09:42;;;;;;;;;;;;;;;;;;351554;28;951;-64
2022/10/26 01:09:52;;;;;;;;;;;;;;;;;;351564;28;979;-64
2022/10/26 01:10:02;;;;;;;;;;;;;;;;;;351529;28;916;-64
2022/10/26 01:10:14;;;;;;;;;;;;;;;;;;351506;28;948;-64
2022/10/26 01:10:24;;;;;;;;;;;;;;;;;;351546;28;971;-64
2022/10/26 01:10:36;;;;;;;;;;;;;;;;;;351548;28;1075;-64
2022/10/26 01:10:46;;;;;;;;;;;;;;;;;;351577;28;915;-64
2022/10/26 01:10:57;;;;;;;;;;;;;;;;;;351606;28;963;-64
2022/10/26 01:11:07;;;;;;;;;;;;;;;;;;351536;28;916;-64
2022/10/26 01:11:18;;;;;;;;;;;;;;;;;;351567;28;1023;-64
2022/10/26 01:11:28;;;;;;;;;;;;;;;;;;351524;28;1040;-63
2022/10/26 01:11:38;;;;;;;;;;;;;;;;;;351258;28;1357;-64
2022/10/26 01:11:48;;;;;;;;;;;;;;;;;;351553;28;940;-64
2022/10/26 01:11:59;;;;;;;;;;;;;;;;;;351616;28;789;-64
2022/10/26 01:12:09;;;;;;;;;;;;;;;;;;351521;28;880;-64
2022/10/26 01:12:19;;;;;;;;;;;;;;;;;;351490;28;877;-64
2022/10/26 01:12:29;;;;;;;;;;;;;;;;;;351588;28;916;-64
2022/10/26 01:12:40;;;;;;;;;;;;;;;;;;351385;28;995;-64
2022/10/26 01:12:50;;;;;;;;;;;;;;;;;;351541;28;940;-64
2022/10/26 01:13:01;;;;;;;;;;;;;;;;;;351565;28;948;-64
2022/10/26 01:13:12;;;;;;;;;;;;;;;;;;351533;28;1200;-64
2022/10/26 01:13:24;;;;;;;;;;;;;;;;;;351621;28;944;-64
2022/10/26 01:13:35;;;;;;;;;;;;;;;;;;351557;28;790;-64
2022/10/26 01:13:46;;;;;;;;;;;;;;;;;;351603;28;936;-64
2022/10/26 01:13:58;;;;;;;;;;;;;;;;;;351502;28;956;-64
2022/10/26 01:14:09;;;;;;;;;;;;;;;;;;351616;28;757;-64
2022/10/26 01:14:20;;;;;;;;;;;;;;;;;;351567;28;773;-64
2022/10/26 01:14:31;;;;;;;;;;;;;;;;;;351628;28;928;-64
2022/10/26 01:14:41;;;;;;;;;;;;;;;;;;351519;28;1027;-64
2022/10/26 01:14:52;;;;;;;;;;;;;;;;;;351560;28;1058;-64
2022/10/26 01:15:02;;;;;;;;;;;;;;;;;;351599;28;825;-64
2022/10/26 01:15:13;;;;;;;;;;;;;;;;;;351571;28;916;-64
2022/10/26 01:15:27;;;;;;;;;;;;;;;;;;351548;28;895;-64
2022/10/26 01:15:45;;;;;;;;;;;;;;;;;;351615;28;982;-64
2022/10/26 01:16:08;;;;;;;;;;;;;;;;;;351528;28;932;-64
2022/10/26 01:16:33;;;;;;;;;;;;;;;;;;351570;28;928;-64
2022/10/26 01:17:02;;;;;;;;;;;;;;;;;;350413;28;1347;-64
2022/10/26 01:17:12;;;;;;;;;;;;;;;;;;351524;28;925;-64
2022/10/26 01:17:34;;;;;;;;;;;;;;;;;;351586;28;1003;-64
2022/10/26 01:17:53;;;;;;;;;;;;;;;;;;351530;28;1047;-64
2022/10/26 01:18:19;;;;;;;;;;;;;;;;;;351561;28;761;-64
2022/10/26 01:18:41;;;;;;;;;;;;;;;;;;351469;28;924;-64
2022/10/26 01:18:57;;;;;;;;;;;;;;;;;;351552;28;901;-64
2022/10/26 01:19:26;;;;;;;;;;;;;;;;;;351547;28;916;-64
2022/10/26 01:19:50;;;;;;;;;;;;;;;;;;351480;28;920;-64
2022/10/26 01:20:14;;;;;;;;;;;;;;;;;;350528;28;1705;-64
2022/10/26 01:20:39;;;;;;;;;;;;;;;;;;350104;28;923;-64
2022/10/26 01:21:00;;;;;;;;;;;;;;;;;;350168;28;790;-64
2022/10/26 01:21:16;;;;;;;;;;;;;;;;;;350072;28;976;-64
2022/10/26 01:21:29;;;;;;;;;;;;;;;;;;350165;28;1011;-64
2022/10/26 01:22:00;;;;;;;;;;;;;;;;;;350180;28;933;-64
2022/10/26 01:22:17;;;;;;;;;;;;;;;;;;345749;28;958;-64
2022/10/26 01:22:40;;;;;;;;;;;;;;;;;;346676;28;1015;-64
2022/10/26 01:22:56;;;;;;;;;;;;;;;;;;350186;28;1075;-64
2022/10/26 01:23:27;;;;;;;;;;;;;;;;;;350156;28;807;-64
2022/10/26 01:23:43;;;;;;;;;;;;;;;;;;349572;28;1290;-64